Time;durP1;ratioP1;P1;durP2;ratioP2;P2;SDS_P1;SDS_P2;PMS_P1;PMS_P2;Temp;Humidity;BMP_temperature;BMP_pressure;BME280_temperature;BME280_humidity;BME280_pressure;Samples;Min_cycle;Max_cycle;Signal;HPM_P1;HPM_P2
2022/10/18 00:01:39;;;;;;;22.73;9.23;;;;;;;14.13;100.00;102530.66;5032105;28;20053;-76
2022/10/18 00:04:05;;;;;;;18.48;9.07;;;;;;;14.14;100.00;102523.56;5028046;28;20385;-77
2022/10/18 00:06:30;;;;;;;17.08;9.70;;;;;;;14.13;100.00;102525.34;5030309;28;20102;-77
2022/10/18 00:08:56;;;;;;;17.75;10.57;;;;;;;14.13;100.00;102516.47;4997636;28;20028;-76
2022/10/18 00:11:22;;;;;;;11.63;9.07;;;;;;;14.11;100.00;102518.25;5013771;28;20030;-77
2022/10/18 00:13:50;;;;;;;26.40;9.63;;;;;;;14.13;100.00;102524.47;5030336;28;20034;-77
2022/10/18 00:16:18;;;;;;;14.75;9.10;;;;;;;14.12;100.00;102520.91;5030447;28;20037;-77
2022/10/18 00:18:46;;;;;;;17.58;9.48;;;;;;;14.14;100.00;102515.56;5030376;28;20538;-77
2022/10/18 00:21:18;;;;;;;14.13;8.98;;;;;;;14.14;100.00;102513.81;5024951;28;20021;-77
2022/10/18 00:23:45;;;;;;;14.05;9.52;;;;;;;14.14;100.00;102510.22;5031172;28;20121;-77
2022/10/18 00:26:12;;;;;;;10.93;7.93;;;;;;;14.11;100.00;102510.28;5031339;28;20033;-77
2022/10/18 00:28:38;;;;;;;17.05;10.60;;;;;;;14.11;100.00;102507.59;5029669;28;20030;-77
2022/10/18 00:31:10;;;;;;;13.68;9.40;;;;;;;14.13;100.00;102514.69;5031280;28;20580;-77
2022/10/18 00:33:35;;;;;;;15.07;9.63;;;;;;;14.11;100.00;102516.47;5029942;28;20044;-77
2022/10/18 00:36:01;;;;;;;14.25;8.90;;;;;;;14.10;100.00;102511.19;5029880;28;20018;-77
2022/10/18 00:38:26;;;;;;;14.25;8.93;;;;;;;14.09;100.00;102517.38;5030080;28;20075;-77
2022/10/18 00:40:52;;;;;;;19.92;8.95;;;;;;;14.09;100.00;102515.59;5030878;28;20075;-77
2022/10/18 00:43:18;;;;;;;15.57;10.00;;;;;;;14.08;100.00;102508.53;5030028;28;20034;-78
2022/10/18 00:45:43;;;;;;;19.40;9.00;;;;;;;14.07;100.00;102503.19;5029730;28;20083;-77
2022/10/18 00:48:12;;;;;;;13.60;9.52;;;;;;;14.07;100.00;102511.19;5029539;28;20029;-76
2022/10/18 00:50:39;;;;;;;14.18;9.60;;;;;;;14.06;100.00;102512.09;5031023;28;20503;-77
2022/10/18 00:53:09;;;;;;;12.82;8.55;;;;;;;14.06;100.00;102514.75;5028535;28;20029;-77
2022/10/18 00:55:35;;;;;;;12.50;8.38;;;;;;;14.04;100.00;102513.88;5031539;28;20022;-77
2022/10/18 00:58:02;;;;;;;18.08;9.15;;;;;;;14.04;100.00;102525.41;5031372;28;20116;-77
2022/10/18 01:00:28;;;;;;;17.13;9.95;;;;;;;14.05;100.00;102531.66;5031237;28;20099;-77
2022/10/18 01:02:53;;;;;;;17.27;9.65;;;;;;;14.06;100.00;102530.75;5044195;28;20037;-77
2022/10/18 01:05:19;;;;;;;14.57;8.95;;;;;;;14.07;100.00;102535.16;5024073;28;20038;-77
2022/10/18 01:07:50;;;;;;;13.30;9.02;;;;;;;14.08;100.00;102536.94;5035379;28;20102;-77
2022/10/18 01:10:48;;;;;;;24.02;9.35;;;;;;;14.07;100.00;102530.75;5017981;28;20436;-77
2022/10/18 01:13:29;;;;;;;18.58;8.65;;;;;;;14.04;100.00;102535.19;5000291;28;20762;-77
2022/10/18 01:16:11;;;;;;;13.60;9.50;;;;;;;14.03;100.00;102534.31;5031474;28;20388;-77
2022/10/18 01:19:13;;;;;;;15.40;9.70;;;;;;;14.05;100.00;102529.88;5046775;28;20029;-77
2022/10/18 01:21:49;;;;;;;9.63;8.55;;;;;;;14.03;100.00;102533.44;5027335;28;20029;-77
2022/10/18 01:24:33;;;;;;;16.83;8.80;;;;;;;14.01;100.00;102532.56;5030007;28;20137;-77
2022/10/18 01:27:07;;;;;;;13.93;9.25;;;;;;;14.00;100.00;102533.47;5031605;28;20071;-77
2022/10/18 01:29:54;;;;;;;13.60;8.52;;;;;;;13.98;100.00;102529.03;5031437;28;20075;-77
2022/10/18 01:32:26;;;;;;;16.98;8.43;;;;;;;14.00;100.00;102538.81;5035288;28;20041;-76
2022/10/18 01:34:58;;;;;;;14.23;8.82;;;;;;;13.99;100.00;102529.91;5050184;28;20465;-77
2022/10/18 01:37:26;;;;;;;16.25;8.77;;;;;;;13.98;100.00;102529.03;5034013;28;20041;-77
2022/10/18 01:39:55;;;;;;;15.60;9.07;;;;;;;13.97;100.00;102537.03;5034736;28;20022;-78
2022/10/18 01:42:21;;;;;;;14.30;8.88;;;;;;;13.95;100.00;102533.50;5034901;28;20086;-77
2022/10/18 01:44:50;;;;;;;16.98;8.57;;;;;;;13.96;100.00;102530.81;5034866;28;20176;-77
2022/10/18 01:47:17;;;;;;;17.17;9.40;;;;;;;13.96;100.00;102535.28;5033593;28;20167;-77
2022/10/18 01:49:42;;;;;;;14.60;9.27;;;;;;;13.95;100.00;102538.84;5050006;28;20030;-77
2022/10/18 01:52:13;;;;;;;17.00;8.13;;;;;;;13.94;100.00;102529.94;5034762;28;20350;-77
2022/10/18 01:54:42;;;;;;;14.05;9.00;;;;;;;13.93;100.00;102536.19;5033190;28;20037;-77
2022/10/18 01:57:13;;;;;;;17.55;8.35;;;;;;;13.95;100.00;102538.84;5033401;28;20079;-77
2022/10/18 02:00:00;;;;;;;10.95;8.60;;;;;;;13.96;100.00;102540.59;5049756;28;20033;-77
2022/10/18 02:02:42;;;;;;;17.45;8.70;;;;;;;13.94;100.00;102543.25;5037920;28;20428;-77
2022/10/18 02:05:23;;;;;;;11.13;8.60;;;;;;;13.94;100.00;102542.38;5038180;28;20469;-77
2022/10/18 02:08:06;;;;;;;12.13;9.80;;;;;;;13.92;100.00;102539.75;5054659;28;20037;-77
2022/10/18 02:10:39;;;;;;;15.25;8.68;;;;;;;13.91;100.00;102537.09;5046536;28;20388;-77
2022/10/18 02:13:06;;;;;;;10.13;8.15;;;;;;;13.87;100.00;102538.91;5029620;28;20547;-77
2022/10/18 02:15:38;;;;;;;16.92;9.25;;;;;;;13.84;100.00;102536.25;5018017;28;20030;-77
2022/10/18 02:18:09;;;;;;;22.45;9.48;;;;;;;13.80;100.00;102541.59;5028001;28;20643;-77
2022/10/18 02:20:37;;;;;;;15.70;9.30;;;;;;;13.76;100.00;102536.31;5036331;28;20068;-77
2022/10/18 02:23:07;;;;;;;16.85;8.43;;;;;;;13.70;100.00;102528.41;5034160;28;20370;-77
2022/10/18 02:25:34;;;;;;;13.32;8.68;;;;;;;13.70;100.00;102533.72;5033883;28;20053;-77
2022/10/18 02:28:02;;;;;;;17.30;8.73;;;;;;;13.67;100.00;102533.72;5027162;28;20060;-77
2022/10/18 02:30:36;;;;;;;12.55;8.25;;;;;;;13.66;100.00;102539.94;5026254;28;20040;-77
2022/10/18 02:33:38;;;;;;;11.85;8.60;;;;;;;13.71;100.00;102540.81;5034224;28;20025;-77
2022/10/18 02:36:21;;;;;;;21.48;9.52;;;;;;;13.69;100.00;102537.25;5049133;28;20394;-77
2022/10/18 02:38:51;;;;;;;14.40;8.25;;;;;;;13.69;100.00;102545.25;5049287;28;20041;-77
2022/10/18 02:41:25;;;;;;;12.63;8.98;;;;;;;13.69;100.00;102539.03;5033753;28;20025;-77
2022/10/18 02:43:51;;;;;;;11.25;9.63;;;;;;;13.67;100.00;102544.38;5032132;28;20052;-77
2022/10/18 02:46:18;;;;;;;14.07;9.15;;;;;;;13.68;100.00;102545.28;5034967;28;20034;-77
2022/10/18 02:48:44;;;;;;;14.77;10.02;;;;;;;13.69;100.00;102539.91;5032471;28;20048;-77
2022/10/18 02:51:09;;;;;;;16.60;10.07;;;;;;;13.67;100.00;102543.50;5048957;28;20041;-77
2022/10/18 02:53:35;;;;;;;15.57;10.57;;;;;;;13.71;100.00;102543.47;5032261;28;20037;-77
2022/10/18 02:56:02;;;;;;;18.60;11.88;;;;;;;13.70;100.00;102541.72;5032259;28;20117;-77
2022/10/18 02:58:27;;;;;;;14.18;9.93;;;;;;;13.71;100.00;102546.13;5032356;28;20088;-77
2022/10/18 03:00:53;;;;;;;18.02;11.57;;;;;;;13.72;100.00;102547.00;5035136;28;20432;-77
2022/10/18 03:03:18;;;;;;;15.10;10.80;;;;;;;13.73;100.00;102551.44;5039119;28;20124;-77
2022/10/18 03:05:44;;;;;;;16.88;11.52;;;;;;;13.73;100.00;102554.13;5033462;28;20129;-77
2022/10/18 03:08:09;;;;;;;17.20;11.38;;;;;;;13.72;100.00;102555.91;5032445;28;20022;-77
2022/10/18 03:10:35;;;;;;;15.95;10.88;;;;;;;13.71;100.00;102555.91;5033116;28;20033;-77
2022/10/18 03:13:00;;;;;;;19.40;11.05;;;;;;;13.71;100.00;102562.09;5031905;28;20120;-77
2022/10/18 03:15:25;;;;;;;18.67;11.63;;;;;;;13.73;100.00;102556.78;5031623;28;20434;-77
2022/10/18 03:17:51;;;;;;;21.20;10.50;;;;;;;13.71;100.00;102558.56;5031736;28;20370;-77
2022/10/18 03:20:16;;;;;;;20.38;11.77;;;;;;;13.70;100.00;102549.69;5043748;28;20049;-77
2022/10/18 03:22:42;;;;;;;15.27;12.07;;;;;;;13.72;100.00;102555.91;5031696;28;20030;-77
2022/10/18 03:25:07;;;;;;;14.02;10.93;;;;;;;13.71;100.00;102554.13;5032682;28;20050;-77
2022/10/18 03:27:33;;;;;;;20.95;11.82;;;;;;;13.70;100.00;102549.69;5031741;28;20521;-77
2022/10/18 03:29:59;;;;;;;21.08;11.45;;;;;;;13.70;100.00;102554.16;5032907;28;20041;-77
2022/10/18 03:32:25;;;;;;;17.80;11.07;;;;;;;13.69;100.00;102552.34;5032920;28;20041;-77
2022/10/18 03:34:50;;;;;;;13.57;11.73;;;;;;;13.68;100.00;102554.13;5032967;28;20032;-77
2022/10/18 03:37:16;;;;;;;18.33;12.00;;;;;;;13.71;100.00;102558.56;5031611;28;20048;-77
2022/10/18 03:39:41;;;;;;;16.27;11.30;;;;;;;13.70;100.00;102556.81;5031287;28;20029;-77
2022/10/18 03:42:07;;;;;;;21.10;12.15;;;;;;;13.69;100.00;102549.69;5015103;28;20055;-77
2022/10/18 03:44:32;;;;;;;21.58;11.85;;;;;;;13.68;100.00;102550.59;5032358;28;20160;-77
2022/10/18 03:46:57;;;;;;;21.65;12.18;;;;;;;13.67;100.00;102549.69;5031448;28;20036;-77
2022/10/18 03:49:23;;;;;;;24.00;12.38;;;;;;;13.63;100.00;102549.75;5032321;28;20042;-77
2022/10/18 03:51:48;;;;;;;18.45;12.50;;;;;;;13.63;100.00;102541.75;5031336;28;20032;-77
2022/10/18 03:54:14;;;;;;;23.15;14.60;;;;;;;13.61;100.00;102541.75;5031535;28;20057;-77
2022/10/18 03:56:39;;;;;;;17.00;13.00;;;;;;;13.59;100.00;102543.56;5032589;28;20038;-77
2022/10/18 03:59:05;;;;;;;17.73;11.95;;;;;;;13.55;100.00;102542.72;5032497;28;20385;-77
2022/10/18 04:01:30;;;;;;;16.38;12.40;;;;;;;13.56;100.00;102538.25;5035089;28;20457;-77
2022/10/18 04:03:56;;;;;;;23.55;12.90;;;;;;;13.53;100.00;102530.31;5033971;28;20034;-77
2022/10/18 04:06:21;;;;;;;20.73;12.30;;;;;;;13.52;100.00;102533.84;5031010;28;20056;-77
2022/10/18 04:08:47;;;;;;;19.67;12.85;;;;;;;13.51;100.00;102521.44;5044177;28;20508;-77
2022/10/18 04:11:12;;;;;;;17.33;12.35;;;;;;;13.50;100.00;102524.97;5032153;28;20036;-77
2022/10/18 04:13:38;;;;;;;21.52;13.25;;;;;;;13.48;100.00;102524.13;5031015;28;20041;-77
2022/10/18 04:16:03;;;;;;;21.52;12.60;;;;;;;13.48;100.00;102532.13;5030958;28;20033;-77
2022/10/18 04:18:29;;;;;;;18.65;12.73;;;;;;;13.49;100.00;102549.84;5032024;28;20441;-77
2022/10/18 04:20:54;;;;;;;21.58;13.60;;;;;;;13.48;100.00;102542.75;5043323;28;20025;-77
2022/10/18 04:23:20;;;;;;;26.58;13.32;;;;;;;13.46;100.00;102544.53;5031946;28;20041;-77
2022/10/18 04:25:45;;;;;;;18.55;12.73;;;;;;;13.44;100.00;102544.53;5031635;28;20072;-77
2022/10/18 04:28:11;;;;;;;16.88;12.55;;;;;;;13.44;100.00;102546.31;5047386;28;20045;-77
2022/10/18 04:30:36;;;;;;;22.15;14.65;;;;;;;13.44;100.00;102551.66;5028887;28;20065;-77
2022/10/18 04:33:02;;;;;;;23.90;13.98;;;;;;;13.46;100.00;102552.53;5031966;28;20108;-77
2022/10/18 04:35:27;;;;;;;25.42;15.00;;;;;;;13.44;100.00;102557.84;5030759;28;20041;-77
2022/10/18 04:37:53;;;;;;;23.02;14.27;;;;;;;13.45;100.00;102553.41;5031786;28;20421;-77
2022/10/18 04:40:19;;;;;;;26.60;13.65;;;;;;;13.42;100.00;102542.78;5031777;28;20041;-77
2022/10/18 04:42:45;;;;;;;23.05;14.90;;;;;;;13.41;100.00;102554.34;5030481;28;20033;-77
2022/10/18 04:45:10;;;;;;;24.48;15.60;;;;;;;13.42;100.00;102564.94;5030528;28;20187;-77
2022/10/18 04:47:36;;;;;;;28.48;14.30;;;;;;;13.39;100.00;102559.66;5047165;28;20103;-77
2022/10/18 04:50:02;;;;;;;59.72;15.40;;;;;;;13.39;100.00;102556.13;5030419;28;20541;-77
2022/10/18 04:52:27;;;;;;;54.70;15.63;;;;;;;13.37;100.00;102549.91;5030712;28;20025;-77
2022/10/18 04:54:53;;;;;;;29.67;12.35;;;;;;;13.33;100.00;102547.28;5030197;28;20040;-77
2022/10/18 04:57:18;;;;;;;75.82;15.25;;;;;;;13.31;100.00;102538.41;5031963;28;20048;-77
2022/10/18 04:59:44;;;;;;;88.85;16.20;;;;;;;13.28;100.00;102553.53;5031501;28;20041;-77
2022/10/18 05:02:09;;;;;;;36.13;14.35;;;;;;;13.31;100.00;102550.84;5033357;28;20109;-77
2022/10/18 05:04:35;;;;;;;24.50;14.82;;;;;;;13.30;100.00;102555.28;5030961;28;20038;-77
2022/10/18 05:07:01;;;;;;;65.55;15.00;;;;;;;13.31;100.00;102559.69;5039214;28;20029;-77
2022/10/18 05:09:27;;;;;;;38.70;13.23;;;;;;;13.30;100.00;102565.03;5041973;28;20045;-77
2022/10/18 05:11:52;;;;;;;41.22;13.48;;;;;;;13.30;100.00;102568.59;5034110;28;20026;-77
2022/10/18 05:14:18;;;;;;;64.35;12.05;;;;;;;13.27;100.00;102571.25;5035533;28;20382;-77
2022/10/18 05:16:43;;;;;;;113.50;13.10;;;;;;;13.26;100.00;102569.47;5034137;28;20116;-77
2022/10/18 05:19:09;;;;;;;20.05;11.52;;;;;;;13.24;100.00;102573.91;5022419;28;20128;-77
2022/10/18 05:21:34;;;;;;;35.38;11.45;;;;;;;13.22;100.00;102569.47;5044003;28;20129;-77
2022/10/18 05:24:00;;;;;;;29.05;12.13;;;;;;;13.23;100.00;102576.56;5033304;28;20559;-78
2022/10/18 05:26:26;;;;;;;37.88;12.52;;;;;;;13.22;100.00;102581.00;5034564;28;20033;-78
2022/10/18 05:28:51;;;;;;;42.05;11.38;;;;;;;13.21;100.00;102579.25;5035161;28;20452;-79
2022/10/18 05:31:17;;;;;;;89.03;11.65;;;;;;;13.20;100.00;102581.91;5035152;28;20043;-79
2022/10/18 05:33:42;;;;;;;11.93;9.55;;;;;;;13.13;100.00;102579.28;5017379;28;20496;-79
2022/10/18 05:36:09;;;;;;;37.28;9.93;;;;;;;13.10;100.00;102579.31;5035152;28;20033;-79
2022/10/18 05:38:38;;;;;;;34.53;10.30;;;;;;;13.06;100.00;102589.97;5049956;28;20155;-78
2022/10/18 05:41:04;;;;;;;31.23;10.68;;;;;;;13.01;100.00;102587.31;5034953;28;20124;-78
2022/10/18 05:43:29;;;;;;;31.70;11.50;;;;;;;13.01;100.00;102595.28;5034947;28;20049;-78
2022/10/18 05:45:55;;;;;;;53.55;11.95;;;;;;;12.97;100.00;102588.22;5033490;28;20079;-78
2022/10/18 05:48:21;;;;;;;70.05;12.18;;;;;;;12.99;100.00;102588.22;5049603;28;20038;-78
2022/10/18 05:50:47;;;;;;;19.85;11.90;;;;;;;12.96;100.00;102582.88;5046755;28;20029;-78
2022/10/18 05:53:12;;;;;;;30.45;12.52;;;;;;;12.98;100.00;102591.75;5032913;28;20091;-78
2022/10/18 05:55:37;;;;;;;43.92;12.43;;;;;;;12.96;100.00;102583.78;5016489;28;20421;-78
2022/10/18 05:58:03;;;;;;;17.20;11.20;;;;;;;12.96;100.00;102588.19;5049464;28;20076;-78
2022/10/18 06:00:29;;;;;;;78.93;13.10;;;;;;;12.94;100.00;102587.34;5015740;28;20043;-78
2022/10/18 06:02:54;;;;;;;52.97;12.48;;;;;;;12.92;100.00;102595.31;5041675;28;20045;-78
2022/10/18 06:05:20;;;;;;;36.15;12.85;;;;;;;12.89;100.00;102595.34;5039633;28;20124;-78
2022/10/18 06:07:45;;;;;;;47.88;11.32;;;;;;;12.86;100.00;102595.34;5040688;28;20033;-78
2022/10/18 06:10:11;;;;;;;86.43;12.27;;;;;;;12.84;100.00;102603.31;5049335;28;20148;-78
2022/10/18 06:12:36;;;;;;;42.95;11.07;;;;;;;12.80;100.00;102598.91;5034224;28;20025;-78
2022/10/18 06:15:02;;;;;;;38.70;11.60;;;;;;;12.80;100.00;102590.91;5033057;28;20064;-78
2022/10/18 06:17:28;;;;;;;20.80;11.70;;;;;;;12.83;100.00;102592.69;5031844;28;20136;-78
2022/10/18 06:19:53;;;;;;;46.63;11.50;;;;;;;12.82;100.00;102601.56;5045119;28;20095;-77
2022/10/18 06:22:18;;;;;;;39.40;12.25;;;;;;;12.79;100.00;102604.25;5035438;28;20040;-77
2022/10/18 06:24:44;;;;;;;47.17;11.13;;;;;;;12.78;100.00;102613.09;5049055;28;20060;-77
2022/10/18 06:27:09;;;;;;;18.55;10.80;;;;;;;12.77;100.00;102617.53;5032976;28;20160;-78
2022/10/18 06:29:36;;;;;;;14.32;10.75;;;;;;;12.75;100.00;102619.28;5033930;28;20041;-78
2022/10/18 06:32:02;;;;;;;18.92;10.88;;;;;;;12.75;100.00;102618.41;5020872;28;20038;-78
2022/10/18 06:34:28;;;;;;;41.92;11.48;;;;;;;12.74;100.00;102620.19;5048253;28;20021;-78
2022/10/18 06:36:53;;;;;;;14.80;10.75;;;;;;;12.74;100.00;102625.50;5032577;28;20059;-78
2022/10/18 06:39:19;;;;;;;33.53;10.98;;;;;;;12.72;100.00;102619.31;5032457;28;20103;-78
2022/10/18 06:41:44;;;;;;;41.47;9.95;;;;;;;12.72;100.00;102629.94;5033848;28;20048;-78
2022/10/18 06:44:20;;;;;;;17.98;10.13;;;;;;;12.69;100.00;102643.25;5033567;28;20104;-78
2022/10/18 06:46:47;;;;;;;19.70;10.15;;;;;;;12.69;100.00;102641.47;5033967;28;20052;-78
2022/10/18 06:49:13;;;;;;;79.00;11.63;;;;;;;12.71;100.00;102641.47;5048808;28;20128;-78
2022/10/18 06:51:40;;;;;;;40.38;10.82;;;;;;;12.72;100.00;102656.53;5049012;28;20025;-78
2022/10/18 06:54:09;;;;;;;63.33;11.63;;;;;;;12.71;100.00;102652.13;5048860;28;20033;-78
2022/10/18 06:56:34;;;;;;;35.60;10.80;;;;;;;12.73;100.00;102646.78;5032331;28;20045;-78
2022/10/18 06:59:00;;;;;;;24.73;9.93;;;;;;;12.74;100.00;102653.88;5032211;28;20045;-78
2022/10/18 07:01:27;;;;;;;31.33;10.25;;;;;;;12.72;100.00;102661.84;5033870;28;20079;-78
2022/10/18 07:03:54;;;;;;;39.58;10.13;;;;;;;12.71;100.00;102665.41;5037291;28;20080;-76
2022/10/18 07:06:20;;;;;;;41.50;10.82;;;;;;;12.73;100.00;102660.94;5048313;28;20477;-76
2022/10/18 07:08:47;;;;;;;31.20;10.45;;;;;;;12.77;100.00;102664.50;5021778;28;20045;-76
2022/10/18 07:11:19;;;;;;;37.72;10.50;;;;;;;12.79;100.00;102660.94;5032959;28;20036;-77
2022/10/18 07:13:44;;;;;;;47.83;10.85;;;;;;;12.82;100.00;102671.56;5032976;28;20033;-77
2022/10/18 07:16:12;;;;;;;36.28;10.93;;;;;;;12.85;100.00;102678.66;5031853;28;20031;-77
2022/10/18 07:18:41;;;;;;;41.63;10.75;;;;;;;12.91;100.00;102687.50;5032272;28;20033;-77
2022/10/18 07:21:09;;;;;;;70.75;12.07;;;;;;;12.93;100.00;102684.81;5020434;28;20028;-77
2022/10/18 07:23:38;;;;;;;59.20;11.25;;;;;;;12.95;100.00;102691.03;5032807;28;20037;-77
2022/10/18 07:26:11;;;;;;;55.40;10.70;;;;;;;12.97;100.00;102696.38;5032815;28;20037;-77
2022/10/18 07:28:37;;;;;;;47.72;10.55;;;;;;;12.96;100.00;102699.88;5031548;28;20033;-78
2022/10/18 07:31:06;;;;;;;49.90;11.23;;;;;;;13.00;100.00;102699.00;5031490;28;20042;-77
2022/10/18 07:33:34;;;;;;;85.97;11.73;;;;;;;13.01;100.00;102703.47;5047981;28;20041;-77
2022/10/18 07:36:02;;;;;;;50.97;10.77;;;;;;;13.04;100.00;102706.97;5032417;28;20109;-77
2022/10/18 07:38:27;;;;;;;48.63;10.75;;;;;;;13.05;100.00;102711.41;5032611;28;20065;-77
2022/10/18 07:40:57;;;;;;;44.30;11.05;;;;;;;13.10;100.00;102724.69;5032052;28;20083;-77
2022/10/18 07:43:23;;;;;;;38.30;11.02;;;;;;;13.09;100.00;102728.25;5031319;28;20397;-78
2022/10/18 07:45:56;;;;;;;38.67;11.13;;;;;;;13.11;100.00;102726.47;5031636;28;20091;-77
2022/10/18 07:48:22;;;;;;;48.90;11.65;;;;;;;13.11;100.00;102734.47;5031352;28;20098;-77
2022/10/18 07:50:47;;;;;;;37.33;11.20;;;;;;;13.14;100.00;102731.78;5031876;28;20025;-77
2022/10/18 07:53:13;;;;;;;41.83;11.15;;;;;;;13.19;100.00;102734.44;5026674;28;20532;-77
2022/10/18 07:55:39;;;;;;;44.78;10.65;;;;;;;13.24;100.00;102743.28;5014627;28;20120;-77
2022/10/18 07:58:04;;;;;;;47.70;11.68;;;;;;;13.27;100.00;102749.50;5047499;28;20045;-77
2022/10/18 08:00:30;;;;;;;56.53;11.55;;;;;;;13.31;100.00;102756.59;5032414;28;20104;-77
2022/10/18 08:02:56;;;;;;;31.25;11.13;;;;;;;13.30;100.00;102754.84;5037983;28;20040;-77
2022/10/18 08:05:22;;;;;;;42.45;11.57;;;;;;;13.31;100.00;102755.72;5032217;28;20055;-77
2022/10/18 08:07:48;;;;;;;35.45;10.85;;;;;;;13.36;100.00;102751.28;5044674;28;20078;-77
2022/10/18 08:10:13;;;;;;;34.22;11.80;;;;;;;13.44;100.00;102752.13;5032618;28;20477;-77
2022/10/18 08:12:39;;;;;;;37.08;12.52;;;;;;;13.46;100.00;102757.44;5047586;28;20045;-77
2022/10/18 08:15:04;;;;;;;28.33;11.65;;;;;;;13.52;100.00;102766.28;5030657;28;20432;-77
2022/10/18 08:17:30;;;;;;;27.45;12.27;;;;;;;13.55;100.00;102774.28;5047434;28;20049;-77
2022/10/18 08:19:55;;;;;;;16.95;11.02;;;;;;;13.55;100.00;102768.97;5020560;28;20077;-77
2022/10/18 08:22:21;;;;;;;23.73;12.35;;;;;;;13.61;100.00;102772.50;5024929;28;20367;-77
2022/10/18 08:24:48;;;;;;;22.88;12.98;;;;;;;13.64;100.00;102768.03;5033283;28;20127;-77
2022/10/18 08:27:14;;;;;;;23.90;13.60;;;;;;;13.70;100.00;102764.47;5027977;28;20130;-77
2022/10/18 08:29:39;;;;;;;28.25;14.13;;;;;;;13.71;100.00;102772.44;5030651;28;20441;-77
2022/10/18 08:32:06;;;;;;;28.15;14.57;;;;;;;13.75;100.00;102771.53;5032135;28;20048;-77
2022/10/18 08:34:33;;;;;;;31.35;15.43;;;;;;;13.84;100.00;102778.59;5046795;28;20437;-76
2022/10/18 08:36:58;;;;;;;29.33;16.27;;;;;;;13.93;100.00;102783.88;5030869;28;20033;-76
2022/10/18 08:39:24;;;;;;;32.22;17.00;;;;;;;13.95;100.00;102784.75;5030198;28;20025;-76
2022/10/18 08:41:52;;;;;;;26.17;16.38;;;;;;;13.96;100.00;102788.31;5031728;28;20124;-76
2022/10/18 08:44:29;;;;;;;26.63;15.65;;;;;;;13.97;100.00;102782.06;5031642;28;20485;-77
2022/10/18 08:46:59;;;;;;;26.88;14.57;;;;;;;13.96;100.00;102786.53;5031899;28;20033;-76
2022/10/18 08:49:29;;;;;;;28.23;15.32;;;;;;;14.02;100.00;102785.63;5030287;28;20038;-77
2022/10/18 08:51:56;;;;;;;26.77;14.80;;;;;;;14.08;100.00;102793.56;5047019;28;20029;-76
2022/10/18 08:54:34;;;;;;;27.23;14.90;;;;;;;14.04;100.00;102790.94;5031540;28;20034;-76
2022/10/18 08:57:03;;;;;;;21.20;13.65;;;;;;;14.05;100.00;102785.59;5030435;28;20033;-77
2022/10/18 08:59:38;;;;;;;25.50;14.30;;;;;;;14.13;100.00;102778.44;5031514;28;20041;-77
2022/10/18 09:02:16;;;;;;;27.58;14.68;;;;;;;14.19;100.00;102790.84;5033548;28;20046;-77
2022/10/18 09:04:55;;;;;;;20.27;12.13;;;;;;;14.28;100.00;102797.91;5027477;28;20120;-77
2022/10/18 09:07:55;;;;;;;25.40;12.52;;;;;;;14.36;100.00;102796.94;5040256;28;20123;-77
2022/10/18 09:10:43;;;;;;;23.40;12.05;;;;;;;14.45;100.00;102796.00;5018172;28;20083;-76
2022/10/18 09:13:21;;;;;;;23.65;13.27;;;;;;;14.51;100.00;102800.41;5046595;28;20485;-77
2022/10/18 09:16:00;;;;;;;26.88;11.82;;;;;;;14.54;100.00;102806.66;5031588;28;20083;-77
2022/10/18 09:19:02;;;;;;;26.83;11.40;;;;;;;14.61;100.00;102808.38;5046597;28;20441;-77
2022/10/18 09:21:41;;;;;;;27.73;10.98;;;;;;;14.64;100.00;102794.16;5031280;28;20546;-77
2022/10/18 09:24:17;;;;;;;20.80;9.07;;;;;;;14.69;100.00;102795.00;5029909;28;20104;-77
2022/10/18 09:26:46;;;;;;;17.05;8.95;;;;;;;14.72;100.00;102796.75;5031259;28;20029;-77
2022/10/18 09:29:17;;;;;;;18.70;9.52;;;;;;;14.74;100.00;102795.84;5046543;28;20057;-77
2022/10/18 09:32:10;;;;;;;19.85;8.57;;;;;;;14.79;100.00;102793.13;5031181;28;20079;-77
2022/10/18 09:35:04;;;;;;;20.05;9.27;;;;;;;14.82;100.00;102796.66;5031005;28;20446;-77
2022/10/18 09:37:33;;;;;;;21.38;9.98;;;;;;;14.86;100.00;102799.28;5029862;28;20595;-76
2022/10/18 09:40:11;;;;;;;20.50;9.07;;;;;;;14.89;100.00;102800.16;5030937;28;20017;-77
2022/10/18 09:42:41;;;;;;;16.67;8.52;;;;;;;14.93;100.00;102799.22;5029766;28;20053;-76
2022/10/18 09:45:06;;;;;;;18.98;8.98;;;;;;;14.98;100.00;102804.50;5029564;28;20065;-77
2022/10/18 09:47:45;;;;;;;16.38;8.65;;;;;;;15.02;100.00;102798.25;5045894;28;20056;-76
2022/10/18 09:50:30;;;;;;;16.58;7.97;;;;;;;15.10;100.00;102796.41;5026271;28;20045;-76
2022/10/18 09:53:14;;;;;;;14.90;7.32;;;;;;;15.18;100.00;102805.22;5014611;28;20033;-76
2022/10/18 09:56:08;;;;;;;13.18;7.57;;;;;;;15.23;99.51;102807.81;5026204;28;20438;-77
2022/10/18 09:58:46;;;;;;;20.50;7.32;;;;;;;15.29;97.96;102804.25;5033558;28;20401;-77
2022/10/18 10:01:15;;;;;;;21.13;7.55;;;;;;;15.31;98.08;102797.97;5052454;28;20140;-76
2022/10/18 10:03:41;;;;;;;19.55;8.45;;;;;;;15.38;97.38;102798.78;5054022;28;20052;-76
2022/10/18 10:06:13;;;;;;;21.92;8.00;;;;;;;15.46;95.68;102797.81;5034136;28;20048;-76
2022/10/18 10:08:47;;;;;;;15.77;7.10;;;;;;;15.60;99.14;102802.09;5047104;28;20357;-76
2022/10/18 10:11:27;;;;;;;14.23;6.75;;;;;;;15.63;95.63;102794.06;5033983;28;20504;-76
2022/10/18 10:14:07;;;;;;;17.15;7.43;;;;;;;15.77;96.85;102807.28;5020784;28;20129;-76
2022/10/18 10:16:41;;;;;;;14.73;5.70;;;;;;;15.85;94.95;102792.94;5049125;28;20033;-76
2022/10/18 10:19:16;;;;;;;13.10;5.60;;;;;;;15.97;95.34;102794.53;5028468;28;20057;-77
2022/10/18 10:21:41;;;;;;;11.90;4.97;;;;;;;16.03;88.98;102802.50;5026186;28;20045;-78
2022/10/18 10:24:20;;;;;;;11.93;5.20;;;;;;;16.11;93.07;102813.94;5012314;28;20057;-78
2022/10/18 10:26:46;;;;;;;18.10;5.07;;;;;;;16.18;92.81;102820.09;5041312;28;20453;-78
2022/10/18 10:29:47;;;;;;;12.95;5.20;;;;;;;16.33;96.99;102824.34;5033826;28;20029;-77
2022/10/18 10:32:13;;;;;;;;;;;;;;;16.42;97.61;102813.53;5034323;28;20036;-77
2022/10/18 10:34:39;;;;;;;15.93;5.32;;;;;;;16.49;93.54;102814.31;5049127;28;19920;-77
2022/10/18 10:37:31;;;;;;;17.70;5.93;;;;;;;16.66;96.55;102814.03;5049020;28;20041;-78
2022/10/18 10:40:09;;;;;;;13.85;5.28;;;;;;;16.83;99.42;102822.72;5016030;28;20053;-78
2022/10/18 10:42:54;;;;;;;16.13;5.63;;;;;;;16.91;95.89;102831.53;5048501;28;20068;-77
2022/10/18 10:45:22;;;;;;;20.08;7.20;;;;;;;17.05;99.70;102836.63;5048455;28;20044;-78
2022/10/18 10:47:49;;;;;;;19.08;7.22;;;;;;;17.15;96.70;102838.22;5033480;28;20033;-78
2022/10/18 10:50:22;;;;;;;19.83;8.35;;;;;;;17.39;100.00;102833.34;5048231;28;20041;-77
2022/10/18 10:52:48;;;;;;;16.90;5.47;;;;;;;17.42;92.56;102834.16;5048648;28;20065;-78
2022/10/18 10:55:41;;;;;;;18.40;5.55;;;;;;;17.60;95.67;102832.91;5033050;28;20080;-78
2022/10/18 10:58:16;;;;;;;15.98;5.70;;;;;;;17.84;98.36;102836.06;5024184;28;20413;-78
2022/10/18 11:00:43;;;;;;;17.40;5.63;;;;;;;17.89;91.19;102831.50;5041511;28;20107;-77
2022/10/18 11:03:20;;;;;;;13.38;4.90;;;;;;;18.10;92.47;102832.84;5036648;28;20029;-78
2022/10/18 11:05:48;;;;;;;16.60;5.22;;;;;;;18.15;81.13;102835.41;5048328;28;20120;-78
2022/10/18 11:08:18;;;;;;;16.33;5.07;;;;;;;18.24;82.18;102840.56;5033032;28;20060;-77
2022/10/18 11:11:17;;;;;;;19.85;6.28;;;;;;;18.26;76.40;102842.31;5048544;28;20033;-78
2022/10/18 11:14:15;;;;;;;14.43;4.38;;;;;;;18.33;74.92;102844.88;5031185;28;20118;-78
2022/10/18 11:16:59;;;;;;;14.95;5.20;;;;;;;18.52;84.75;102846.22;4974483;28;20479;-78
2022/10/18 11:19:30;;;;;;;15.15;3.80;;;;;;;18.79;80.25;102843.81;5024585;28;20062;-78